CMB865 Details

Departure: Elmendorf Air Force Base (PAED)
Arrival: Travis Air Force Base (KSUU) at N/A
Route: TED V440 MDO J804R FRIED TR19 YZP Q801 YAZ J501 TOU ELMAA Q1 TOCOS SUTHU1
Notes: USTRANSCOM CONTRACT FLIGHT


Current Weather Information
PAED 250956Z 00000KT 6SM FU FEW040 FEW100 10/04 A2984 RMK AO2A SLP100 T01040039 $
KSUU 250958Z AUTO 23017G23KT 10SM CLR 18/14 A2991 RMK AO2 PK WND 23026/09 SLP135 T01810144